createdAt,value
2019-01-26T00:01:10.660Z,17.13
2019-01-26T00:03:58.522Z,17.93
2019-01-26T00:06:46.448Z,18.97
2019-01-26T00:09:33.975Z,23.37
2019-01-26T00:12:22.168Z,20.63
2019-01-26T00:15:10.158Z,15.53
2019-01-26T00:17:58.210Z,18.07
2019-01-26T00:20:46.440Z,16.70
2019-01-26T00:23:34.391Z,19.40
2019-01-26T00:26:22.388Z,17.60
2019-01-26T00:29:10.503Z,18.43
2019-01-26T00:31:58.605Z,15.90
2019-01-26T00:34:46.508Z,17.20
2019-01-26T00:37:34.736Z,16.50
2019-01-26T00:40:22.728Z,18.83
2019-01-26T00:43:10.516Z,16.97
2019-01-26T00:45:58.190Z,15.30
2019-01-26T00:48:46.283Z,18.30
2019-01-26T00:51:34.275Z,16.37
2019-01-26T00:54:22.303Z,16.53
2019-01-26T00:57:10.203Z,20.50
2019-01-26T00:59:58.303Z,19.60
2019-01-26T01:02:46.232Z,18.77
2019-01-26T01:05:33.751Z,17.53
2019-01-26T01:08:21.590Z,20.70
2019-01-26T01:11:09.666Z,20.03
2019-01-26T01:13:57.708Z,21.17
2019-01-26T01:16:45.798Z,20.27
2019-01-26T01:19:33.410Z,17.20
2019-01-26T01:22:21.593Z,20.10
2019-01-26T01:25:10.011Z,20.97
2019-01-26T01:27:57.757Z,17.73
2019-01-26T01:30:45.782Z,20.23
2019-01-26T01:33:33.777Z,20.53
2019-01-26T01:36:22.052Z,23.10
2019-01-26T01:39:10.088Z,18.03
2019-01-26T01:41:58.082Z,18.97
2019-01-26T01:44:46.174Z,18.90
2019-01-26T01:47:34.186Z,19.37
2019-01-26T01:50:21.954Z,18.77
2019-01-26T01:53:10.094Z,17.67
2019-01-26T01:55:57.940Z,21.37
2019-01-26T01:58:46.253Z,18.23
2019-01-26T02:01:34.381Z,21.17
2019-01-26T02:04:22.591Z,20.63
2019-01-26T02:07:10.849Z,20.20
2019-01-26T02:09:59.124Z,20.00
2019-01-26T02:12:47.116Z,20.87
2019-01-26T02:15:35.066Z,18.40
2019-01-26T02:18:23.348Z,18.33
2019-01-26T02:21:11.946Z,17.77
2019-01-26T02:24:00.009Z,21.17
2019-01-26T02:26:47.696Z,21.70
2019-01-26T02:29:35.590Z,18.37
2019-01-26T02:32:23.655Z,17.17
2019-01-26T02:35:11.385Z,20.07
2019-01-26T02:37:59.387Z,19.70
2019-01-26T02:40:46.998Z,21.47
2019-01-26T02:43:35.338Z,19.10
2019-01-26T02:46:23.099Z,19.10
2019-01-26T02:49:11.252Z,17.20
2019-01-26T02:51:59.357Z,18.90
2019-01-26T02:54:47.367Z,21.63
2019-01-26T02:57:35.379Z,16.53
2019-01-26T03:00:24.476Z,19.77
2019-01-26T03:03:11.970Z,17.10
2019-01-26T03:05:59.934Z,18.67
2019-01-26T03:08:47.818Z,17.53
2019-01-26T03:11:35.488Z,19.00
2019-01-26T03:14:23.571Z,15.97
2019-01-26T03:17:11.584Z,19.30
2019-01-26T03:19:59.156Z,18.20
2019-01-26T03:22:46.711Z,18.90
2019-01-26T03:25:35.206Z,18.57
2019-01-26T03:28:23.041Z,20.57
2019-01-26T03:31:11.310Z,17.80
2019-01-26T03:33:59.275Z,17.37
2019-01-26T03:36:47.397Z,18.93
2019-01-26T03:39:35.734Z,16.93
2019-01-26T03:42:23.946Z,15.20
2019-01-26T03:45:12.477Z,19.80
2019-01-26T03:48:00.406Z,17.63
2019-01-26T03:50:47.984Z,20.13
2019-01-26T03:53:36.139Z,18.90
2019-01-26T03:56:23.991Z,16.47
2019-01-26T03:59:11.823Z,18.97
2019-01-26T04:01:59.778Z,20.87
2019-01-26T04:04:47.793Z,22.37
2019-01-26T04:07:35.283Z,19.97
2019-01-26T04:10:23.399Z,19.53
2019-01-26T04:13:11.339Z,19.13
2019-01-26T04:15:59.453Z,17.20
2019-01-26T04:18:47.407Z,19.67
2019-01-26T04:21:35.337Z,14.80
2019-01-26T04:24:23.272Z,18.37
2019-01-26T04:27:11.204Z,17.03
2019-01-26T04:29:59.290Z,18.20
2019-01-26T04:32:47.075Z,19.47
2019-01-26T04:35:35.228Z,20.73
2019-01-26T04:38:23.356Z,19.67
2019-01-26T04:41:10.877Z,17.33
2019-01-26T04:43:58.746Z,21.33
2019-01-26T04:46:46.744Z,21.93
2019-01-26T04:49:34.599Z,23.57
2019-01-26T04:52:22.373Z,19.87
2019-01-26T04:55:10.045Z,18.47
2019-01-26T04:57:57.675Z,20.50
2019-01-26T05:00:45.644Z,19.77
2019-01-26T05:03:33.428Z,14.40
2019-01-26T05:06:21.298Z,17.90
2019-01-26T05:09:10.170Z,17.07
2019-01-26T05:11:57.917Z,17.50
2019-01-26T05:14:45.773Z,17.13
2019-01-26T05:17:39.197Z,21.13
2019-01-26T05:20:25.380Z,17.63
2019-01-26T05:23:12.778Z,17.00
2019-01-26T05:26:00.837Z,17.50
2019-01-26T05:28:48.349Z,15.93
2019-01-26T05:31:35.869Z,17.20
2019-01-26T05:34:23.723Z,14.80
2019-01-26T05:37:11.507Z,19.00
2019-01-26T05:39:59.683Z,19.23
2019-01-26T05:42:47.546Z,20.13
2019-01-26T05:45:35.696Z,16.10
2019-01-26T05:48:23.440Z,13.63
2019-01-26T05:51:11.492Z,12.93
2019-01-26T05:53:59.360Z,15.63
2019-01-26T05:56:47.411Z,18.40
2019-01-26T05:59:34.998Z,19.53
2019-01-26T06:02:22.846Z,17.07
2019-01-26T06:05:10.829Z,16.33
2019-01-26T06:07:58.441Z,17.03
2019-01-26T06:10:46.353Z,16.17
2019-01-26T06:13:34.208Z,17.93
2019-01-26T06:16:22.433Z,14.63
2019-01-26T06:19:10.832Z,15.33
2019-01-26T06:21:58.731Z,14.90
2019-01-26T06:24:47.063Z,19.57
2019-01-26T06:27:35.039Z,12.73
2019-01-26T06:30:24.607Z,17.67
2019-01-26T06:33:12.502Z,14.83
2019-01-26T06:36:00.360Z,15.77
2019-01-26T06:38:48.470Z,16.43
2019-01-26T06:41:36.296Z,14.83
2019-01-26T06:44:24.103Z,14.90
2019-01-26T06:47:11.993Z,15.80
2019-01-26T06:49:59.647Z,15.27
2019-01-26T06:52:47.894Z,11.90
2019-01-26T06:55:36.038Z,13.93
2019-01-26T06:58:23.837Z,17.37
2019-01-26T07:01:11.492Z,14.80
2019-01-26T07:03:59.773Z,15.23
2019-01-26T07:07:05.390Z,15.30
2019-01-26T07:09:53.672Z,16.57
2019-01-26T07:12:41.535Z,13.63
2019-01-26T07:15:29.575Z,14.60
2019-01-26T07:18:17.515Z,16.13
2019-01-26T07:21:05.365Z,14.03
2019-01-26T07:23:53.383Z,13.73
2019-01-26T07:26:41.284Z,13.40
2019-01-26T07:29:28.913Z,13.90
2019-01-26T07:32:16.914Z,14.80
2019-01-26T07:35:06.082Z,13.47
2019-01-26T07:37:53.991Z,15.83
2019-01-26T07:40:42.089Z,13.83
2019-01-26T07:43:29.968Z,14.40
2019-01-26T07:46:17.685Z,13.73
2019-01-26T07:49:05.557Z,14.77
2019-01-26T07:51:53.665Z,12.40
2019-01-26T07:54:41.371Z,13.10
2019-01-26T07:57:30.208Z,17.70
2019-01-26T08:00:20.809Z,15.03
2019-01-26T08:03:08.800Z,14.60
2019-01-26T08:05:56.548Z,13.30
2019-01-26T08:08:44.540Z,13.73
2019-01-26T08:11:32.966Z,10.93
2019-01-26T08:14:20.942Z,17.00
2019-01-26T08:17:09.373Z,12.60
2019-01-26T08:19:57.040Z,11.73
2019-01-26T08:22:45.314Z,10.70
2019-01-26T08:25:33.355Z,13.73
2019-01-26T08:28:21.608Z,10.17
2019-01-26T08:31:09.266Z,10.17
2019-01-26T08:33:57.189Z,9.40
2019-01-26T08:36:45.134Z,11.13
2019-01-26T08:39:33.484Z,11.70
2019-01-26T08:42:21.132Z,11.87
2019-01-26T08:45:10.980Z,9.50
2019-01-26T08:47:58.790Z,10.70
2019-01-26T08:50:47.065Z,10.60
2019-01-26T08:53:35.169Z,10.13
2019-01-26T08:56:22.972Z,10.80
2019-01-26T08:59:11.217Z,12.07
2019-01-26T09:02:17.679Z,13.83
2019-01-26T09:05:06.757Z,12.37
2019-01-26T09:07:54.839Z,10.67
2019-01-26T09:10:42.750Z,12.40
2019-01-26T09:13:31.163Z,10.30
2019-01-26T09:16:18.981Z,13.07
2019-01-26T09:19:07.229Z,12.23
2019-01-26T09:21:54.818Z,12.73
2019-01-26T09:24:42.897Z,10.30
2019-01-26T09:27:30.999Z,13.67
2019-01-26T09:30:19.007Z,12.77
2019-01-26T09:33:07.293Z,12.03
2019-01-26T09:35:55.446Z,9.07
2019-01-26T09:38:43.394Z,12.57
2019-01-26T09:41:31.705Z,11.20
2019-01-26T09:44:19.161Z,11.30
2019-01-26T09:47:07.045Z,12.13
2019-01-26T09:49:54.539Z,8.53
2019-01-26T09:52:42.585Z,13.67
2019-01-26T09:55:30.790Z,10.20
2019-01-26T09:58:19.987Z,11.47
2019-01-26T10:01:07.897Z,11.10
2019-01-26T10:03:55.823Z,11.63
2019-01-26T10:06:43.300Z,10.43
2019-01-26T10:09:31.216Z,10.73
2019-01-26T10:12:19.121Z,10.60
2019-01-26T10:15:09.479Z,13.03
2019-01-26T10:17:57.720Z,11.37
2019-01-26T10:20:45.558Z,12.63
2019-01-26T10:23:33.143Z,11.13
2019-01-26T10:26:21.490Z,10.87
2019-01-26T10:29:09.252Z,12.97
2019-01-26T10:31:57.017Z,12.90
2019-01-26T10:34:45.306Z,13.87
2019-01-26T10:37:33.921Z,9.57
2019-01-26T10:40:56.525Z,12.73
2019-01-26T10:43:48.343Z,11.83
2019-01-26T10:46:36.503Z,12.23
2019-01-26T10:49:24.469Z,11.27
2019-01-26T10:52:12.380Z,9.73
2019-01-26T10:55:00.493Z,10.40
2019-01-26T10:57:48.778Z,12.43
2019-01-26T11:00:36.963Z,11.40
2019-01-26T11:03:25.142Z,8.73
2019-01-26T11:06:13.377Z,10.20
2019-01-26T11:09:01.618Z,10.03
2019-01-26T11:11:49.399Z,9.20
2019-01-26T11:14:37.740Z,8.53
2019-01-26T11:17:25.415Z,13.60
2019-01-26T11:20:13.053Z,8.37
2019-01-26T11:23:01.341Z,7.80
2019-01-26T11:25:49.580Z,9.27
2019-01-26T11:28:37.305Z,9.73
2019-01-26T11:31:25.447Z,10.13
2019-01-26T11:34:13.403Z,9.73
2019-01-26T11:37:01.709Z,9.73
2019-01-26T11:39:56.617Z,10.77
2019-01-26T11:42:44.780Z,8.60
2019-01-26T11:46:07.202Z,9.47
2019-01-26T11:48:56.488Z,9.10
2019-01-26T11:52:09.927Z,9.90
2019-01-26T11:55:26.599Z,8.60
2019-01-26T11:58:14.367Z,8.83
2019-01-26T12:01:31.011Z,8.80
2019-01-26T12:04:23.440Z,9.10
2019-01-26T12:07:14.027Z,11.07
2019-01-26T12:10:01.982Z,11.33
2019-01-26T12:12:50.074Z,10.57
2019-01-26T12:15:37.544Z,18.63
2019-01-26T12:18:28.725Z,12.03
2019-01-26T12:21:17.053Z,9.20
2019-01-26T12:24:04.887Z,11.30
2019-01-26T23:45:37.119Z,15.23
2019-01-26T23:48:24.643Z,16.57
2019-01-26T23:51:12.749Z,14.83
2019-01-26T23:54:00.856Z,16.63
2019-01-26T23:56:48.787Z,13.67
2019-01-26T23:59:36.931Z,17.67
